createdAt,value
2018-03-02T00:02:10.143Z,101235.09
2018-03-02T00:04:37.934Z,101229.17
2018-03-02T00:07:05.631Z,101230.75
2018-03-02T00:09:33.314Z,101226.39
2018-03-02T00:12:00.998Z,101227.83
2018-03-02T00:14:28.631Z,101228.15
2018-03-02T00:16:56.312Z,101228.14
2018-03-02T00:19:23.946Z,101220.11
2018-03-02T00:21:51.656Z,101225.55
2018-03-02T00:24:19.285Z,101217.12
2018-03-02T00:26:47.002Z,101212.73
2018-03-02T00:29:14.625Z,101205.19
2018-03-02T00:31:42.294Z,101212.68
2018-03-02T00:34:09.928Z,101205.65
2018-03-02T00:36:37.598Z,101206.84
2018-03-02T00:39:05.256Z,101209.77
2018-03-02T00:41:32.938Z,101210.59
2018-03-02T00:44:00.567Z,101198.02
2018-03-02T00:46:28.264Z,101200.24
2018-03-02T00:48:55.959Z,101188.53
2018-03-02T00:51:23.643Z,101192.26
2018-03-02T00:53:51.317Z,101190.91
2018-03-02T00:56:18.999Z,101186.69
2018-03-02T00:58:46.630Z,101184.72
2018-03-02T01:01:14.266Z,101182.06
2018-03-02T01:03:41.946Z,101182.95
2018-03-02T01:06:09.630Z,101170.94
2018-03-02T01:08:38.356Z,101180.09
2018-03-02T01:11:05.996Z,101179.73
2018-03-02T01:13:33.709Z,101168.38
2018-03-02T01:16:01.351Z,101168.84
2018-03-02T01:18:29.104Z,101158.58
2018-03-02T01:20:56.773Z,101164.98
2018-03-02T01:23:24.444Z,101160.55
2018-03-02T01:25:52.130Z,101153.27
2018-03-02T01:28:19.830Z,101152.50
2018-03-02T01:30:47.473Z,101147.55
2018-03-02T01:33:15.206Z,101141.79
2018-03-02T01:35:42.897Z,101138.89
2018-03-02T01:38:10.583Z,101135.91
2018-03-02T01:40:38.243Z,101135.59
2018-03-02T01:43:05.940Z,101127.14
2018-03-02T01:45:33.613Z,101120.75
2018-03-02T01:48:01.302Z,101119.49
2018-03-02T01:50:28.946Z,101117.92
2018-03-02T01:52:56.748Z,101110.10
2018-03-02T01:55:24.386Z,101108.75
2018-03-02T01:57:52.066Z,101113.42
2018-03-02T02:00:19.710Z,101107.61
2018-03-02T02:02:47.398Z,101101.81
2018-03-02T02:05:15.031Z,101096.55
2018-03-02T02:07:42.713Z,101095.83
2018-03-02T02:10:10.407Z,101087.81
2018-03-02T02:12:38.089Z,101068.47
2018-03-02T02:15:05.730Z,101070.61
2018-03-02T02:17:33.413Z,101061.18
2018-03-02T02:20:01.053Z,101059.12
2018-03-02T02:22:28.833Z,101065.77
2018-03-02T02:24:56.469Z,101063.95
2018-03-02T02:27:24.138Z,101059.14
2018-03-02T02:29:51.774Z,101050.31
2018-03-02T02:32:19.459Z,101053.52
2018-03-02T02:34:47.093Z,101045.98
2018-03-02T02:37:14.783Z,101050.36
2018-03-02T02:39:42.421Z,101045.27
2018-03-02T02:42:10.119Z,101048.72
2018-03-02T02:44:37.754Z,101039.47
2018-03-02T02:47:05.399Z,101041.88
2018-03-02T02:49:33.225Z,101034.51
2018-03-02T02:52:00.852Z,101033.36
2018-03-02T02:54:28.586Z,101043.11
2018-03-02T02:56:56.220Z,101039.34
2018-03-02T02:59:23.885Z,101036.05
2018-03-02T03:01:51.538Z,101040.78
2018-03-02T03:04:19.235Z,101030.09
2018-03-02T03:06:46.873Z,101032.84
2018-03-02T03:09:14.563Z,101037.77
2018-03-02T03:11:42.195Z,101029.93
2018-03-02T03:14:09.875Z,101025.95
2018-03-02T03:16:37.529Z,101029.70
2018-03-02T03:19:05.204Z,101038.59
2018-03-02T03:21:32.845Z,101036.83
2018-03-02T03:24:00.946Z,101035.34
2018-03-02T03:26:28.586Z,101036.94
2018-03-02T03:28:56.359Z,101036.38
2018-03-02T03:31:23.999Z,101040.30
2018-03-02T03:33:51.688Z,101032.27
2018-03-02T03:36:19.492Z,101033.63
2018-03-02T03:38:47.172Z,101034.19
2018-03-02T03:41:14.926Z,101028.43
2018-03-02T03:43:42.597Z,101029.70
2018-03-02T03:46:10.305Z,101023.94
2018-03-02T03:48:38.110Z,101021.04
2018-03-02T03:51:05.756Z,101014.36
2018-03-02T03:53:33.432Z,101012.31
2018-03-02T03:56:01.066Z,101005.08
2018-03-02T03:58:28.744Z,101013.16
2018-03-02T04:00:56.493Z,101006.48
2018-03-02T04:03:24.173Z,100998.28
2018-03-02T04:05:51.955Z,100996.27
2018-03-02T04:08:19.630Z,100989.00
2018-03-02T04:10:47.302Z,100991.28
2018-03-02T04:13:14.980Z,100995.78
2018-03-02T04:15:42.615Z,100988.47
2018-03-02T04:18:10.332Z,100991.02
2018-03-02T04:20:37.975Z,100980.22
2018-03-02T04:23:05.622Z,100988.51
2018-03-02T04:25:33.465Z,100982.45
2018-03-02T04:28:01.118Z,100976.67
2018-03-02T04:30:28.803Z,100973.53
2018-03-02T04:32:56.442Z,100976.92
2018-03-02T04:35:24.166Z,100973.20
2018-03-02T04:37:51.958Z,100982.80
2018-03-02T04:40:19.778Z,100977.73
2018-03-02T04:42:47.422Z,100975.66
2018-03-02T04:45:15.102Z,100977.95
2018-03-02T04:47:42.868Z,100968.73
2018-03-02T04:50:10.568Z,100974.06
2018-03-02T04:52:38.335Z,100966.12
2018-03-02T04:55:06.013Z,100962.58
2018-03-02T04:57:33.849Z,100960.39
2018-03-02T05:00:01.524Z,100966.80
2018-03-02T05:02:29.168Z,100966.19
2018-03-02T05:04:56.992Z,100965.05
2018-03-02T05:07:24.666Z,100956.02
2018-03-02T05:09:52.482Z,100950.19
2018-03-02T05:12:20.118Z,100941.34
2018-03-02T05:14:47.837Z,100946.39
2018-03-02T05:17:15.506Z,100948.22
2018-03-02T05:19:43.181Z,100942.77
2018-03-02T05:22:10.829Z,100944.16
2018-03-02T05:24:38.503Z,100939.25
2018-03-02T05:27:06.194Z,100937.23
2018-03-02T05:29:33.974Z,100938.19
2018-03-02T05:32:01.703Z,100935.49
2018-03-02T05:34:29.494Z,100932.84
2018-03-02T05:36:57.250Z,100928.59
2018-03-02T05:39:25.012Z,100933.28
2018-03-02T05:41:52.845Z,100935.73
2018-03-02T05:44:20.624Z,100934.02
2018-03-02T05:46:48.286Z,100931.09
2018-03-02T05:49:16.092Z,100934.97
2018-03-02T05:51:43.773Z,100928.41
2018-03-02T05:54:11.513Z,100926.93
2018-03-02T05:56:39.176Z,100927.08
2018-03-02T05:59:06.873Z,100933.32
2018-03-02T06:01:34.717Z,100930.48
2018-03-02T06:04:02.462Z,100932.28
2018-03-02T06:06:30.249Z,100934.55
2018-03-02T06:08:57.939Z,100926.83
2018-03-02T06:11:25.814Z,100924.83
2018-03-02T06:13:53.517Z,100924.98
2018-03-02T06:16:21.251Z,100923.71
2018-03-02T06:18:48.905Z,100923.59
2018-03-02T06:21:16.730Z,100919.12
2018-03-02T06:23:44.416Z,100912.22
2018-03-02T06:26:12.274Z,100912.59
2018-03-02T06:28:39.945Z,100910.76
2018-03-02T06:31:07.618Z,100906.31
2018-03-02T06:33:35.391Z,100913.27
2018-03-02T06:36:03.090Z,100912.06
2018-03-02T06:38:30.725Z,100903.04
2018-03-02T06:40:58.569Z,100897.97
2018-03-02T06:43:26.238Z,100903.91
2018-03-02T06:45:53.935Z,100906.30
2018-03-02T06:48:21.583Z,100899.71
2018-03-02T06:50:49.310Z,100891.00
2018-03-02T06:53:16.990Z,100889.98
2018-03-02T06:55:44.694Z,100880.47
2018-03-02T06:58:12.371Z,100883.55
2018-03-02T07:00:40.073Z,100882.80
2018-03-02T07:03:07.769Z,100877.74
2018-03-02T07:05:35.605Z,100869.09
2018-03-02T07:08:03.270Z,100872.48
2018-03-02T07:10:30.942Z,100874.97
2018-03-02T07:12:58.597Z,100877.14
2018-03-02T07:15:26.261Z,100873.69
2018-03-02T07:17:53.918Z,100871.25
2018-03-02T07:20:21.626Z,100864.20
2018-03-02T07:22:49.257Z,100868.75
2018-03-02T07:25:16.970Z,100867.97
2018-03-02T07:27:44.643Z,100863.83
2018-03-02T07:30:12.322Z,100863.74
2018-03-02T07:32:39.968Z,100861.33
2018-03-02T07:35:07.640Z,100850.17
2018-03-02T07:37:35.282Z,100855.77
2018-03-02T07:40:02.982Z,100846.59
2018-03-02T07:42:30.620Z,100841.92
2018-03-02T07:44:58.306Z,100841.14
2018-03-02T07:47:25.984Z,100839.58
2018-03-02T07:49:53.604Z,100835.20
2018-03-02T07:52:21.280Z,100834.96
2018-03-02T07:54:48.929Z,100826.04
2018-03-02T07:57:16.637Z,100821.55
2018-03-02T07:59:44.322Z,100820.63
2018-03-02T08:02:12.164Z,100814.90
2018-03-02T08:04:39.958Z,100816.37
2018-03-02T08:07:07.913Z,100808.99
2018-03-02T08:09:35.733Z,100809.38
2018-03-02T08:12:03.824Z,100816.37
2018-03-02T08:14:31.736Z,100813.42
2018-03-02T08:16:59.813Z,100809.86
2018-03-02T08:19:27.644Z,100810.27
2018-03-02T08:21:55.688Z,100804.71
2018-03-02T08:24:23.595Z,100809.26
2018-03-02T08:26:51.472Z,100796.19
2018-03-02T08:29:19.573Z,100796.62
2018-03-02T08:31:47.270Z,100794.33
2018-03-02T08:34:14.965Z,100791.41
2018-03-02T08:36:42.656Z,100783.68
2018-03-02T08:39:10.314Z,100780.77
2018-03-02T08:41:38.008Z,100779.52
2018-03-02T08:44:05.663Z,100778.45
2018-03-02T08:46:33.521Z,100769.43
2018-03-02T08:49:01.294Z,100762.60
2018-03-02T08:51:29.253Z,100758.48
2018-03-02T08:53:57.036Z,100749.15
2018-03-02T08:56:25.007Z,100747.77
2018-03-02T08:58:53.014Z,100745.16
2018-03-02T09:01:21.044Z,100741.84
2018-03-02T09:03:48.903Z,100735.76
2018-03-02T09:06:17.188Z,100733.80
2018-03-02T09:08:45.097Z,100723.23
2018-03-02T09:11:13.020Z,100723.47
2018-03-02T09:13:41.017Z,100715.10
2018-03-02T09:16:09.067Z,100713.02
2018-03-02T09:18:36.791Z,100702.72
2018-03-02T09:21:04.510Z,100700.27
2018-03-02T09:23:32.170Z,100686.00
2018-03-02T09:25:59.903Z,100688.13
2018-03-02T09:28:27.574Z,100691.39
2018-03-02T09:30:55.263Z,100681.63
2018-03-02T09:33:23.114Z,100684.50
2018-03-02T09:35:50.836Z,100671.45
2018-03-02T09:38:18.548Z,100667.45
2018-03-02T09:40:46.343Z,100654.86
2018-03-02T09:43:14.107Z,100653.28
2018-03-02T09:45:41.902Z,100654.34
2018-03-02T09:48:09.602Z,100643.41
2018-03-02T09:50:37.270Z,100643.25
2018-03-02T09:53:04.985Z,100638.30
2018-03-02T09:55:32.662Z,100624.37
2018-03-02T09:58:00.395Z,100636.80
2018-03-02T10:00:28.091Z,100624.49
2018-03-02T10:02:55.930Z,100628.20
2018-03-02T10:05:23.607Z,100623.08
2018-03-02T10:07:51.331Z,100621.95
2018-03-02T10:10:19.066Z,100609.68
2018-03-02T10:12:46.833Z,100609.93
2018-03-02T10:15:14.493Z,100609.25
2018-03-02T10:17:42.242Z,100602.94
2018-03-02T10:20:09.954Z,100600.45
2018-03-02T10:22:37.662Z,100603.41
2018-03-02T10:25:05.343Z,100600.22
2018-03-02T10:27:33.078Z,100598.45
2018-03-02T10:30:00.917Z,100597.61
2018-03-02T10:32:28.598Z,100588.59
2018-03-02T10:34:56.262Z,100591.09
2018-03-02T10:37:24.087Z,100580.91
2018-03-02T10:39:51.767Z,100578.72
2018-03-02T10:42:19.474Z,100572.27
2018-03-02T10:44:47.142Z,100579.48
2018-03-02T10:47:14.903Z,100569.66
2018-03-02T10:49:42.669Z,100560.57
2018-03-02T10:52:10.349Z,100561.66
2018-03-02T10:54:38.018Z,100557.44
2018-03-02T10:57:05.687Z,100553.30
2018-03-02T10:59:33.376Z,100550.56
2018-03-02T11:02:07.250Z,100540.84
2018-03-02T11:04:35.903Z,100544.48
2018-03-02T11:07:03.698Z,100546.47
2018-03-02T11:09:31.386Z,100549.42
2018-03-02T11:11:59.152Z,100541.98
2018-03-02T11:14:26.852Z,100535.18
2018-03-02T11:16:54.614Z,100531.36
2018-03-02T11:19:22.318Z,100527.55
2018-03-02T11:21:50.014Z,100528.31
2018-03-02T11:24:17.759Z,100522.57
2018-03-02T11:26:45.554Z,100524.48
2018-03-02T11:29:13.282Z,100508.61
2018-03-02T11:31:41.035Z,100507.13
2018-03-02T11:34:08.751Z,100502.08
2018-03-02T11:36:36.411Z,100500.70
2018-03-02T11:39:04.187Z,100492.72
2018-03-02T11:41:31.835Z,100488.84
2018-03-02T11:43:59.523Z,100484.89
2018-03-02T11:46:27.161Z,100478.00
2018-03-02T11:48:54.850Z,100485.65
2018-03-02T11:51:22.475Z,100482.62
2018-03-02T11:53:50.198Z,100484.02
2018-03-02T11:56:17.898Z,100479.52
2018-03-02T11:58:45.596Z,100472.16
2018-03-02T12:01:13.294Z,100474.33
2018-03-02T12:03:40.974Z,100468.92
2018-03-02T12:06:08.682Z,100473.64
2018-03-02T12:08:36.378Z,100477.44
2018-03-02T12:11:04.067Z,100464.06
2018-03-02T12:13:31.753Z,100456.10
2018-03-02T12:15:59.392Z,100457.52
2018-03-02T12:18:27.092Z,100459.27
2018-03-02T12:20:54.825Z,100456.12
2018-03-02T12:23:22.544Z,100449.03
2018-03-02T12:25:50.293Z,100457.59
2018-03-02T12:28:18.032Z,100451.36
2018-03-02T12:30:45.698Z,100445.69
2018-03-02T12:33:13.414Z,100455.49
2018-03-02T12:35:41.064Z,100445.81
2018-03-02T12:38:08.776Z,100454.84
2018-03-02T12:40:36.440Z,100454.59
2018-03-02T12:43:04.143Z,100456.66
2018-03-02T12:45:32.076Z,100450.37
2018-03-02T12:47:59.799Z,100448.74
2018-03-02T12:50:27.534Z,100445.78
2018-03-02T12:52:55.235Z,100442.82
2018-03-02T12:55:22.950Z,100446.75
2018-03-02T12:57:50.609Z,100441.09
2018-03-02T13:00:18.319Z,100432.55
2018-03-02T13:02:46.023Z,100439.47
2018-03-02T13:05:13.739Z,100441.55
2018-03-02T13:07:41.409Z,100432.22
2018-03-02T13:10:09.237Z,100429.47
2018-03-02T13:12:36.896Z,100441.98
2018-03-02T13:15:05.528Z,100445.00
2018-03-02T13:17:34.485Z,100433.02
2018-03-02T13:20:03.024Z,100437.73
2018-03-02T13:22:41.273Z,100429.44
2018-03-02T13:25:09.834Z,100435.31
2018-03-02T13:30:38.563Z,100427.86
2018-03-02T13:33:18.393Z,100416.14
2018-03-02T13:35:47.402Z,100410.31
2018-03-02T13:38:15.744Z,100420.58
2018-03-02T13:40:55.994Z,100421.36
2018-03-02T13:43:24.344Z,100408.64
2018-03-02T13:45:52.743Z,100406.59
2018-03-02T13:48:41.824Z,100420.33
2018-03-02T13:51:09.992Z,100415.11
2018-03-02T13:53:37.749Z,100404.59
2018-03-02T13:56:05.485Z,100396.52
2018-03-02T13:58:33.192Z,100394.88
2018-03-02T14:01:00.871Z,100400.79
2018-03-02T14:03:40.417Z,100400.63
2018-03-02T14:06:08.113Z,100396.52
2018-03-02T14:08:35.834Z,100394.27
2018-03-02T14:11:03.548Z,100388.88
2018-03-02T14:13:31.245Z,100392.58
2018-03-02T14:15:58.960Z,100388.44
2018-03-02T14:18:26.656Z,100396.47
2018-03-02T14:20:55.358Z,100398.70
2018-03-02T14:23:23.052Z,100394.48
2018-03-02T14:25:52.156Z,100389.44
2018-03-02T14:28:19.855Z,100388.83
2018-03-02T14:30:47.580Z,100388.34
2018-03-02T14:33:15.348Z,100387.93
2018-03-02T14:35:43.107Z,100398.47
2018-03-02T14:38:10.782Z,100397.56
2018-03-02T14:40:38.507Z,100397.56
2018-03-02T14:43:06.223Z,100398.00
2018-03-02T14:45:33.972Z,100397.05
2018-03-02T14:48:01.654Z,100393.91
2018-03-02T14:50:29.373Z,100394.31
2018-03-02T14:52:57.143Z,100392.05
2018-03-02T14:55:24.840Z,100392.97
2018-03-02T14:57:52.552Z,100397.41
2018-03-02T15:00:20.266Z,100394.08
2018-03-02T15:02:47.946Z,100389.55
2018-03-02T15:05:15.749Z,100393.76
2018-03-02T15:07:43.480Z,100391.72
2018-03-02T15:10:11.258Z,100392.97
2018-03-02T15:12:39.001Z,100389.08
2018-03-02T15:15:06.719Z,100399.78
2018-03-02T15:17:34.418Z,100382.99
2018-03-02T15:20:02.226Z,100381.41
2018-03-02T15:22:29.934Z,100386.44
2018-03-02T15:24:57.628Z,100388.78
2018-03-02T15:27:25.299Z,100390.39
2018-03-02T15:29:52.999Z,100391.94
2018-03-02T15:32:20.679Z,100394.94
2018-03-02T15:34:49.452Z,100399.90
2018-03-02T15:37:18.064Z,100396.61
2018-03-02T15:39:47.083Z,100396.44
2018-03-02T15:42:15.665Z,100405.63
2018-03-02T15:44:44.215Z,100400.67
2018-03-02T15:47:13.414Z,100403.84
2018-03-02T15:49:41.958Z,100403.22
2018-03-02T15:52:09.637Z,100407.83
2018-03-02T15:54:37.314Z,100406.37
2018-03-02T15:57:05.021Z,100400.19
2018-03-02T15:59:33.869Z,100407.00
2018-03-02T16:02:01.581Z,100412.80
2018-03-02T16:04:29.267Z,100408.22
2018-03-02T16:06:57.057Z,100411.39
2018-03-02T16:09:24.770Z,100415.12
2018-03-02T16:11:52.507Z,100418.73
2018-03-02T16:14:20.799Z,100416.92
2018-03-02T16:16:48.559Z,100424.98
2018-03-02T16:19:16.235Z,100420.37
2018-03-02T16:21:45.085Z,100430.97
2018-03-02T16:24:13.353Z,100439.78
2018-03-02T16:26:44.804Z,100438.61
2018-03-02T16:29:13.764Z,100431.72
2018-03-02T16:31:42.594Z,100434.16
2018-03-02T16:34:13.258Z,100439.03
2018-03-02T16:36:41.704Z,100441.72
2018-03-02T16:39:09.777Z,100441.72
2018-03-02T16:41:38.664Z,100441.07
2018-03-02T16:44:07.796Z,100441.16
2018-03-02T16:46:35.823Z,100440.52
2018-03-02T16:49:04.534Z,100428.73
2018-03-02T16:51:33.214Z,100438.16
2018-03-02T16:54:01.142Z,100445.56
2018-03-02T16:56:31.045Z,100446.91
2018-03-02T16:59:01.263Z,100447.96
2018-03-02T17:01:30.603Z,100449.32
2018-03-02T17:04:16.616Z,100461.83
2018-03-02T17:09:24.882Z,100468.53
2018-03-02T17:12:01.818Z,100471.77
2018-03-02T17:14:32.531Z,100471.36
2018-03-02T17:17:01.195Z,100476.00
2018-03-02T17:19:30.461Z,100478.72
2018-03-02T17:21:59.138Z,100479.80
2018-03-02T17:24:27.285Z,100479.03
2018-03-02T17:26:57.325Z,100480.91
2018-03-02T17:29:33.005Z,100489.81
2018-03-02T17:32:04.792Z,100495.52
2018-03-02T17:34:33.181Z,100498.41
2018-03-02T17:37:02.364Z,100505.50
2018-03-02T17:39:30.974Z,100504.84
2018-03-02T17:41:59.517Z,100512.33
2018-03-02T17:44:27.637Z,100512.70
2018-03-02T17:46:55.736Z,100514.89
2018-03-02T17:49:23.462Z,100515.77
2018-03-02T17:51:51.182Z,100519.62
2018-03-02T17:54:18.838Z,100521.44
2018-03-02T17:56:46.553Z,100519.39
2018-03-02T17:59:14.443Z,100517.61
2018-03-02T18:01:42.152Z,100513.12
2018-03-02T18:04:09.827Z,100519.49
2018-03-02T18:06:38.103Z,100516.55
2018-03-02T18:09:05.951Z,100514.02
2018-03-02T18:11:33.960Z,100521.73
2018-03-02T18:14:01.887Z,100525.23
2018-03-02T18:16:29.680Z,100521.55
2018-03-02T18:18:57.394Z,100519.45
2018-03-02T18:21:25.187Z,100528.41
2018-03-02T18:23:52.901Z,100529.02
2018-03-02T18:26:20.666Z,100529.56
2018-03-02T18:28:48.414Z,100526.44
2018-03-02T18:31:16.214Z,100533.49
2018-03-02T18:33:43.963Z,100531.89
2018-03-02T18:36:11.755Z,100525.83
2018-03-02T18:38:39.504Z,100526.99
2018-03-02T18:41:07.238Z,100527.50
2018-03-02T18:43:35.002Z,100529.22
2018-03-02T18:46:02.779Z,100534.92
2018-03-02T18:48:30.542Z,100539.11
2018-03-02T18:50:58.283Z,100546.71
2018-03-02T18:53:26.059Z,100550.06
2018-03-02T18:55:53.782Z,100553.16
2018-03-02T18:58:21.520Z,100554.91
2018-03-02T19:00:49.266Z,100556.93
2018-03-02T19:03:17.151Z,100564.73
2018-03-02T19:05:44.886Z,100559.85
2018-03-02T19:08:12.676Z,100560.17
2018-03-02T19:10:40.414Z,100558.81
2018-03-02T19:13:08.176Z,100558.22
2018-03-02T19:15:35.921Z,100562.16
2018-03-02T19:18:03.719Z,100561.12
2018-03-02T19:20:31.505Z,100555.64
2018-03-02T19:22:59.208Z,100558.55
2018-03-02T19:25:26.949Z,100559.67
2018-03-02T19:27:54.697Z,100569.16
2018-03-02T19:30:22.390Z,100571.45
2018-03-02T19:32:50.158Z,100571.87
2018-03-02T19:35:17.889Z,100573.94
2018-03-02T19:37:45.618Z,100575.19
2018-03-02T19:40:13.376Z,100574.56
2018-03-02T19:42:41.147Z,100571.01
2018-03-02T19:45:09.002Z,100570.20
2018-03-02T19:47:36.759Z,100570.71
2018-03-02T19:50:04.490Z,100576.77
2018-03-02T19:52:32.311Z,100571.25
2018-03-02T19:55:00.083Z,100573.20
2018-03-02T19:57:27.870Z,100576.44
2018-03-02T19:59:55.643Z,100574.64
2018-03-02T20:02:23.432Z,100569.67
2018-03-02T20:04:52.170Z,100573.85
2018-03-02T20:07:19.896Z,100578.73
2018-03-02T20:09:47.599Z,100573.13
2018-03-02T20:12:15.409Z,100575.09
2018-03-02T20:14:43.143Z,100573.53
2018-03-02T20:17:10.923Z,100577.91
2018-03-02T20:19:38.697Z,100580.82
2018-03-02T20:22:06.460Z,100571.86
2018-03-02T20:24:34.216Z,100580.18
2018-03-02T20:27:01.950Z,100577.50
2018-03-02T20:29:29.789Z,100581.52
2018-03-02T20:31:57.569Z,100588.68
2018-03-02T20:34:25.838Z,100583.94
2018-03-02T20:36:53.664Z,100579.69
2018-03-02T20:39:21.409Z,100584.34
2018-03-02T20:41:49.144Z,100578.44
2018-03-02T20:44:16.880Z,100580.08
2018-03-02T20:46:45.690Z,100577.58
2018-03-02T20:49:13.470Z,100577.23
2018-03-02T20:51:41.167Z,100576.68
2018-03-02T20:54:08.930Z,100582.97
2018-03-02T20:56:36.679Z,100575.90
2018-03-02T20:59:04.375Z,100572.17
2018-03-02T21:01:32.061Z,100571.55
2018-03-02T21:03:59.778Z,100572.59
2018-03-02T21:06:27.491Z,100571.02
2018-03-02T21:08:55.234Z,100573.09
2018-03-02T21:11:22.898Z,100574.27
2018-03-02T21:13:50.670Z,100586.20
2018-03-02T21:16:18.407Z,100582.56
2018-03-02T21:18:46.185Z,100584.75
2018-03-02T21:21:13.887Z,100577.25
2018-03-02T21:23:41.597Z,100576.63
2018-03-02T21:26:09.257Z,100581.10
2018-03-02T21:28:36.939Z,100578.49
2018-03-02T21:31:04.638Z,100563.95
2018-03-02T21:33:32.562Z,100575.08
2018-03-02T21:36:00.098Z,100571.95
2018-03-02T21:38:27.916Z,100572.03
2018-03-02T21:40:55.614Z,100569.45
2018-03-02T21:43:23.367Z,100572.37
2018-03-02T21:45:51.048Z,100555.41
2018-03-02T21:48:18.756Z,100571.53
2018-03-02T21:50:46.450Z,100572.58
2018-03-02T21:53:14.137Z,100574.20
2018-03-02T21:55:41.783Z,100576.94
2018-03-02T21:58:09.520Z,100572.95
2018-03-02T22:00:37.236Z,100568.41
2018-03-02T22:03:04.981Z,100560.47
2018-03-02T22:05:33.318Z,100560.69
2018-03-02T22:08:01.054Z,100558.98
2018-03-02T22:10:28.787Z,100560.34
2018-03-02T22:12:56.472Z,100556.86
2018-03-02T22:15:24.175Z,100558.81
2018-03-02T22:17:52.734Z,100556.22
2018-03-02T22:20:20.459Z,100559.76
2018-03-02T22:22:48.823Z,100557.16
2018-03-02T22:25:16.561Z,100557.77
2018-03-02T22:27:44.337Z,100558.38
2018-03-02T22:30:12.043Z,100557.84
2018-03-02T22:32:39.711Z,100548.20
2018-03-02T22:35:07.403Z,100548.62
2018-03-02T22:37:35.052Z,100550.91
2018-03-02T22:40:02.740Z,100549.75
2018-03-02T22:42:30.450Z,100555.16
2018-03-02T22:44:58.168Z,100555.35
2018-03-02T22:47:25.863Z,100555.13
2018-03-02T22:49:53.836Z,100558.07
2018-03-02T22:52:21.876Z,100556.29
2018-03-02T22:54:58.427Z,100560.98
2018-03-02T22:57:35.306Z,100559.20
2018-03-02T23:00:03.953Z,100557.34
2018-03-02T23:02:31.762Z,100560.65
2018-03-02T23:05:02.587Z,100558.70
2018-03-02T23:07:31.866Z,100558.52
2018-03-02T23:10:01.072Z,100554.09
2018-03-02T23:12:29.506Z,100557.52
2018-03-02T23:14:57.680Z,100553.44
2018-03-02T23:17:26.135Z,100549.39
2018-03-02T23:19:54.815Z,100559.37
2018-03-02T23:25:00.758Z,100560.93
2018-03-02T23:27:30.510Z,100560.01
2018-03-02T23:29:59.156Z,100565.93
2018-03-02T23:32:28.558Z,100565.48
2018-03-02T23:34:56.263Z,100564.36
2018-03-02T23:37:24.026Z,100569.02
2018-03-02T23:39:51.762Z,100562.57
2018-03-02T23:42:19.508Z,100561.63
2018-03-02T23:44:48.204Z,100554.92
2018-03-02T23:47:15.943Z,100549.20
2018-03-02T23:49:43.665Z,100552.71
2018-03-02T23:52:11.330Z,100553.78
2018-03-02T23:54:39.035Z,100562.78
2018-03-02T23:57:06.715Z,100564.23
2018-03-02T23:59:34.399Z,100558.41
